Time;durP1;ratioP1;P1;durP2;ratioP2;P2;SDS_P1;SDS_P2;PMS_P1;PMS_P2;Temp;Humidity;BMP_temperature;BMP_pressure;BME280_temperature;BME280_humidity;BME280_pressure;Samples;Min_cycle;Max_cycle;Signal;HPM_P1;HPM_P2
2023/03/28 00:04:16;;;;;;;1.42;0.90;;;;;;;17.21;43.12;102121.81;20757378;28;20074;-82
2023/03/28 00:14:17;;;;;;;2.50;0.80;;;;;;;17.19;43.23;102134.50;20771778;28;20100;-82
2023/03/28 00:24:20;;;;;;;1.67;0.70;;;;;;;17.26;43.10;102129.59;20765169;28;20049;-83
2023/03/28 00:34:22;;;;;;;1.25;0.65;;;;;;;17.31;43.01;102132.00;20776991;28;20460;-82
2023/03/28 00:44:50;;;;;;;1.38;0.68;;;;;;;17.34;42.71;102143.41;20717535;28;20468;-82
2023/03/28 00:54:52;;;;;;;2.58;1.25;;;;;;;17.37;42.83;102137.81;20755947;28;20490;-82
2023/03/28 01:04:58;;;;;;;2.47;0.90;;;;;;;17.42;42.77;102142.91;20770725;28;20053;-82
2023/03/28 01:15:01;;;;;;;1.83;0.85;;;;;;;17.46;42.41;102141.72;20766305;28;20081;-82
2023/03/28 01:25:37;;;;;;;1.83;0.70;;;;;;;17.17;42.41;102077.25;20766036;28;20068;-83
2023/03/28 01:35:57;;;;;;;1.63;0.70;;;;;;;17.52;42.46;102135.91;20749444;28;20050;-82
2023/03/28 01:46:03;;;;;;;1.88;0.95;;;;;;;17.56;42.26;102141.09;20748743;28;20809;-82
2023/03/28 01:56:20;;;;;;;1.67;0.65;;;;;;;17.57;42.20;102138.31;20762156;28;20502;-82
2023/03/28 02:06:26;;;;;;;1.45;0.70;;;;;;;17.59;42.08;102132.81;20752537;28;20050;-82
2023/03/28 02:16:31;;;;;;;1.90;0.77;;;;;;;17.60;41.99;102134.53;20737168;28;20081;-82
2023/03/28 02:26:56;;;;;;;1.80;0.65;;;;;;;17.61;41.85;102134.44;20670023;28;20046;-82
2023/03/28 02:37:28;;;;;;;1.20;0.73;;;;;;;17.65;41.79;102129.69;20699356;28;20041;-82
2023/03/28 02:47:36;;;;;;;1.92;0.90;;;;;;;17.68;41.67;102134.91;20761456;28;20074;-82
2023/03/28 02:57:45;;;;;;;1.88;0.60;;;;;;;17.70;41.91;102124.88;20743979;28;20042;-81
2023/03/28 03:07:48;;;;;;;2.10;0.82;;;;;;;17.65;41.65;102114.41;20728087;28;20046;-82
2023/03/28 03:17:51;;;;;;;1.30;0.50;;;;;;;17.76;41.50;102111.00;20759698;28;20506;-82
2023/03/28 03:27:58;;;;;;;1.25;0.80;;;;;;;17.79;41.73;102110.78;20743751;28;20092;-82
2023/03/28 03:38:00;;;;;;;2.80;0.60;;;;;;;17.85;41.26;102130.19;20674971;28;20510;-82
2023/03/28 03:48:02;;;;;;;3.08;0.88;;;;;;;17.73;41.20;102107.63;20704596;28;20050;-82
2023/03/28 03:58:04;;;;;;;2.00;0.68;;;;;;;17.91;41.19;102146.78;20755119;28;20108;-82
2023/03/28 04:08:07;;;;;;;1.30;0.47;;;;;;;17.88;41.20;102138.03;20707011;28;20049;-82
2023/03/28 04:18:14;;;;;;;1.30;0.60;;;;;;;17.99;40.94;102148.94;20722597;28;20045;-82
2023/03/28 04:28:18;;;;;;;1.33;0.60;;;;;;;18.02;40.95;102148.75;20738899;28;20080;-82
2023/03/28 04:38:40;;;;;;;0.85;0.55;;;;;;;18.05;40.92;102159.31;20727992;28;20060;-82
2023/03/28 04:49:08;;;;;;;1.23;0.60;;;;;;;18.09;40.83;102171.59;20694254;28;20071;-82
2023/03/28 04:59:11;;;;;;;2.00;0.70;;;;;;;18.11;40.72;102177.75;20754843;28;20064;-82
2023/03/28 05:09:15;;;;;;;1.70;0.60;;;;;;;18.15;40.60;102188.34;20771084;28;20046;-82
2023/03/28 05:19:17;;;;;;;0.90;0.40;;;;;;;18.18;40.61;102198.91;20750272;28;20099;-82
2023/03/28 05:29:31;;;;;;;1.87;0.57;;;;;;;18.19;40.63;102208.72;20750489;28;20060;-82
2023/03/28 05:39:33;;;;;;;1.95;0.60;;;;;;;18.14;40.72;102192.00;20751587;28;20490;-82
2023/03/28 05:49:38;;;;;;;1.47;0.60;;;;;;;18.23;40.53;102194.06;20757543;28;20129;-82
2023/03/28 05:59:42;;;;;;;0.98;0.50;;;;;;;18.25;40.70;102189.41;20745398;28;20323;-82
2023/03/28 06:09:45;;;;;;;1.48;0.65;;;;;;;18.16;40.60;102176.59;20719616;28;20057;-82
2023/03/28 06:19:48;;;;;;;0.57;0.40;;;;;;;18.34;40.50;102212.16;20816128;28;20052;-82
2023/03/28 06:29:50;;;;;;;1.30;0.52;;;;;;;18.34;40.45;102204.94;20725247;28;20629;-82
2023/03/28 06:39:53;;;;;;;1.42;0.85;;;;;;;18.33;40.15;102195.13;20770341;28;20057;-83
2023/03/28 06:49:55;;;;;;;0.85;0.50;;;;;;;18.50;41.15;102218.22;20743216;28;20054;-78
2023/03/28 07:00:11;;;;;;;2.42;0.70;;;;;;;18.61;41.43;102220.16;20758084;28;20045;-80
2023/03/28 07:10:31;;;;;;;1.13;0.60;;;;;;;18.53;41.53;102200.94;20816953;28;20053;-81
2023/03/28 07:20:37;;;;;;;1.17;0.52;;;;;;;18.66;41.70;102217.13;20731067;28;20049;-82
2023/03/28 07:30:39;;;;;;;1.15;0.52;;;;;;;18.75;41.88;102226.41;20756913;28;20541;-81
2023/03/28 07:40:40;;;;;;;1.33;0.70;;;;;;;18.76;41.91;102233.50;20707378;28;20045;-81
2023/03/28 07:50:43;;;;;;;1.08;0.60;;;;;;;18.76;42.10;102233.50;20700265;28;20050;-79
2023/03/28 08:00:49;;;;;;;0.98;0.52;;;;;;;18.80;42.28;102244.00;20717685;28;20048;-84
2023/03/28 08:11:14;;;;;;;0.88;0.52;;;;;;;18.86;42.21;102253.47;20708281;28;20599;-80
2023/03/28 08:21:16;;;;;;;1.50;0.57;;;;;;;18.88;42.30;102246.13;20728807;28;20153;-81
2023/03/28 08:31:22;;;;;;;1.60;0.70;;;;;;;18.90;42.61;102246.88;20734115;28;20141;-80
2023/03/28 08:41:39;;;;;;;0.90;0.50;;;;;;;18.90;43.14;102244.16;20687233;28;20510;-80
2023/03/28 08:51:48;;;;;;;1.85;0.60;;;;;;;18.93;45.19;102243.94;20729685;28;20099;-87
2023/03/28 09:01:50;;;;;;;2.47;1.10;;;;;;;18.90;45.43;102243.31;20719918;28;20053;-85
2023/03/28 09:12:02;;;;;;;1.98;0.75;;;;;;;18.92;45.72;102238.69;20739820;28;20050;-90
2023/03/28 09:22:24;;;;;;;3.72;0.85;;;;;;;18.78;46.11;102220.78;20730630;28;20108;-90
2023/03/28 09:32:35;;;;;;;2.25;0.77;;;;;;;18.75;46.21;102215.59;20707915;28;20054;-87
2023/03/28 09:42:59;;;;;;;1.42;0.70;;;;;;;18.84;46.22;102231.13;20704233;28;20046;-91
2023/03/28 09:53:22;;;;;;;1.38;0.73;;;;;;;18.82;45.95;102216.88;20689249;28;20057;-87
2023/03/28 10:03:31;;;;;;;3.03;0.60;;;;;;;18.81;45.54;102209.75;20696693;28;20125;-89
2023/03/28 10:13:39;;;;;;;1.85;0.75;;;;;;;18.79;45.44;102209.00;20673199;28;20070;-91
2023/03/28 10:23:43;;;;;;;;;;;;;;;18.79;45.08;102200.91;20710878;28;20042;-93
2023/03/28 10:33:51;;;;;;;5.07;0.60;;;;;;;18.65;45.28;102183.03;20697846;28;19930;-89
2023/03/28 10:44:20;;;;;;;1.90;0.70;;;;;;;18.90;45.26;102184.81;20700795;28;20045;-85
2023/03/28 10:54:59;;;;;;;3.63;0.90;;;;;;;18.81;44.92;102178.28;20681949;28;20072;-83
2023/03/28 11:06:06;;;;;;;1.77;0.63;;;;;;;18.70;44.54;102170.94;20708803;28;21058;-83
2023/03/28 11:16:32;;;;;;;0.95;0.43;;;;;;;18.52;43.92;102134.50;20727178;28;20148;-83
2023/03/28 11:26:53;;;;;;;2.35;0.68;;;;;;;18.58;43.90;102139.47;20668544;28;20046;-82
2023/03/28 11:38:21;;;;;;;2.38;0.60;;;;;;;18.56;43.61;102127.94;20673058;28;20060;-85
2023/03/28 11:48:27;;;;;;;1.20;0.50;;;;;;;18.53;43.30;102112.81;20704156;28;20081;-85
2023/03/28 11:58:29;;;;;;;;;;;;;;;18.51;43.08;102084.22;20708751;28;20057;-85
2023/03/28 12:08:43;;;;;;;1.27;0.60;;;;;;;18.44;42.98;102058.69;20716608;28;19972;-87
2023/03/28 12:19:12;;;;;;;3.10;0.73;;;;;;;18.56;43.94;102057.81;20724913;28;20388;-86
2023/03/28 12:29:29;;;;;;;2.00;0.60;;;;;;;18.63;44.54;102059.09;20730579;28;20577;-92
2023/03/28 12:39:56;;;;;;;0.80;0.45;;;;;;;18.65;44.59;102043.66;20723855;28;20125;-83
2023/03/28 12:50:11;;;;;;;1.30;0.60;;;;;;;18.68;44.55;102026.34;20727317;28;20154;-87
2023/03/28 13:00:24;;;;;;;1.40;0.85;;;;;;;18.69;44.63;102033.47;20702393;28;20056;-86
2023/03/28 13:10:51;;;;;;;0.95;0.65;;;;;;;18.67;44.53;102001.22;20718969;28;20088;-86
2023/03/28 13:20:53;;;;;;;1.05;0.50;;;;;;;18.55;44.44;101969.75;20718848;28;20046;-85
2023/03/28 13:31:16;;;;;;;0.68;0.40;;;;;;;18.67;44.28;101966.16;20726360;28;20056;-85
2023/03/28 13:41:40;;;;;;;0.95;0.52;;;;;;;18.65;44.20;101946.53;20715611;28;20517;-87
2023/03/28 13:51:46;;;;;;;1.02;0.50;;;;;;;18.66;43.76;101950.09;20719127;28;20041;-85
2023/03/28 14:01:53;;;;;;;1.52;0.52;;;;;;;18.64;43.69;101928.66;20722356;28;20052;-86
2023/03/28 14:12:07;;;;;;;1.48;0.60;;;;;;;18.55;43.25;101923.91;20688317;28;20057;-86
2023/03/28 14:22:14;;;;;;;1.30;0.50;;;;;;;18.60;43.28;101910.97;20722450;28;20061;-85
2023/03/28 14:32:23;;;;;;;1.08;0.45;;;;;;;18.61;43.18;101904.59;20717759;28;20121;-84
2023/03/28 14:42:27;;;;;;;1.33;0.40;;;;;;;18.59;43.09;101894.91;20717933;28;20080;-83
2023/03/28 14:52:33;;;;;;;0.95;0.45;;;;;;;18.58;43.00;101875.16;20707799;28;20428;-84
2023/03/28 15:02:37;;;;;;;2.63;1.00;;;;;;;18.58;43.21;101856.28;20706176;28;20056;-87
2023/03/28 15:12:45;;;;;;;1.63;0.68;;;;;;;18.44;43.37;101821.41;20709692;28;20100;-86
2023/03/28 15:22:49;;;;;;;1.63;0.70;;;;;;;18.54;43.44;101826.00;20696232;28;20386;-83
2023/03/28 15:32:53;;;;;;;1.83;0.60;;;;;;;18.54;43.58;101806.25;20709901;28;20498;-83
2023/03/28 15:42:54;;;;;;;1.30;0.57;;;;;;;18.50;43.54;101797.56;20709538;28;20128;-80
2023/03/28 15:52:58;;;;;;;1.63;0.70;;;;;;;18.52;43.80;101770.44;20688754;28;20054;-80
2023/03/28 16:03:19;;;;;;;2.28;0.75;;;;;;;18.51;43.89;101766.03;20672837;28;20406;-81
2023/03/28 16:13:21;;;;;;;2.33;0.80;;;;;;;18.52;43.84;101740.78;20670265;28;20053;-83
2023/03/28 16:23:42;;;;;;;1.50;0.60;;;;;;;18.54;44.20;101742.41;20695223;28;20042;-81
2023/03/28 16:33:43;;;;;;;1.83;0.50;;;;;;;18.54;44.17;101723.53;20701639;28;20403;-81
2023/03/28 16:43:45;;;;;;;1.13;0.50;;;;;;;18.53;44.35;101700.25;20717444;28;20062;-81
2023/03/28 16:53:47;;;;;;;0.98;0.55;;;;;;;18.52;44.01;101709.31;20728286;28;20058;-80
2023/03/28 17:03:51;;;;;;;1.15;0.55;;;;;;;18.38;44.21;101685.28;20723656;28;20574;-81
2023/03/28 17:14:11;;;;;;;1.42;0.80;;;;;;;18.38;43.87;101690.66;20797658;28;20056;-82
2023/03/28 17:24:13;;;;;;;1.00;0.60;;;;;;;18.30;43.33;101671.53;20818508;28;20065;-83
2023/03/28 17:34:15;;;;;;;1.67;0.70;;;;;;;18.31;43.22;101684.88;20809640;28;20053;-83
2023/03/28 17:44:17;;;;;;;0.88;0.60;;;;;;;18.11;43.08;101649.56;20806709;28;20058;-83
2023/03/28 17:54:18;;;;;;;1.15;0.57;;;;;;;18.19;42.86;101662.44;20746463;28;20056;-83
2023/03/28 18:04:20;;;;;;;1.05;0.70;;;;;;;18.13;42.71;101665.63;20722928;28;20132;-83
2023/03/28 18:14:47;;;;;;;1.45;0.68;;;;;;;18.13;42.74;101656.69;20753948;28;20050;-83
2023/03/28 18:24:49;;;;;;;1.20;0.73;;;;;;;17.93;42.41;101629.41;20743986;28;20073;-82
2023/03/28 18:34:51;;;;;;;2.28;0.90;;;;;;;18.09;42.42;101643.44;20739891;28;20062;-83
2023/03/28 18:44:52;;;;;;;1.08;0.60;;;;;;;18.07;42.50;101641.84;20742677;28;20129;-83
2023/03/28 18:54:54;;;;;;;1.27;0.70;;;;;;;17.74;42.21;101589.56;20733961;28;20056;-83
2023/03/28 19:04:56;;;;;;;1.35;0.90;;;;;;;18.04;42.44;101637.53;20734754;28;20038;-83
2023/03/28 19:14:58;;;;;;;1.38;0.80;;;;;;;17.92;42.54;101616.91;20746544;28;20139;-83
2023/03/28 19:25:00;;;;;;;0.88;0.82;;;;;;;18.01;42.58;101618.91;20734226;28;20085;-83
2023/03/28 19:35:01;;;;;;;1.25;0.80;;;;;;;18.00;42.76;101598.31;20741288;28;20049;-83
2023/03/28 19:45:04;;;;;;;1.00;0.77;;;;;;;17.91;42.96;101574.81;20738987;28;20048;-83
2023/03/28 19:55:07;;;;;;;1.10;0.82;;;;;;;17.96;42.83;101559.13;20735894;28;20042;-83
2023/03/28 20:05:09;;;;;;;2.10;0.90;;;;;;;17.95;43.09;101560.97;20730781;28;20046;-83
2023/03/28 20:15:10;;;;;;;1.48;0.82;;;;;;;17.89;43.16;101541.75;20746262;28;20105;-83
2023/03/28 20:25:13;;;;;;;2.47;1.27;;;;;;;17.82;43.17;101527.88;20743224;28;20052;-83
2023/03/28 20:35:15;;;;;;;3.30;1.42;;;;;;;17.80;43.18;101524.44;20752606;28;20064;-82
2023/03/28 20:45:26;;;;;;;0.98;0.75;;;;;;;17.91;43.12;101547.84;20752958;28;20042;-82
2023/03/28 20:55:30;;;;;;;1.00;0.70;;;;;;;17.87;43.07;101535.63;20749761;28;20050;-83
2023/03/28 21:05:32;;;;;;;1.90;1.05;;;;;;;17.88;43.09;101532.78;20750625;28;20078;-83
2023/03/28 21:15:33;;;;;;;1.20;0.75;;;;;;;17.78;43.18;101494.09;20752413;28;20077;-83
2023/03/28 21:25:35;;;;;;;1.10;0.70;;;;;;;17.87;43.14;101497.91;20754981;28;20050;-83
2023/03/28 21:35:38;;;;;;;1.50;0.70;;;;;;;17.85;43.19;101481.84;20751487;28;20406;-83
2023/03/28 21:45:44;;;;;;;1.70;0.93;;;;;;;17.84;43.40;101472.06;20762541;28;20046;-83
2023/03/28 21:55:46;;;;;;;1.90;1.02;;;;;;;17.80;43.38;101468.78;20747782;28;20729;-83
2023/03/28 22:05:50;;;;;;;1.73;0.80;;;;;;;17.81;43.61;101462.41;20748744;28;20034;-83
2023/03/28 22:15:56;;;;;;;2.63;0.98;;;;;;;17.82;43.55;101453.34;20758543;28;20046;-83
2023/03/28 22:25:58;;;;;;;0.80;0.80;;;;;;;17.80;43.53;101441.84;20754798;28;20050;-83
2023/03/28 22:36:00;;;;;;;2.63;1.25;;;;;;;17.61;43.46;101422.72;20744276;28;20052;-83
2023/03/28 22:46:02;;;;;;;0.85;0.80;;;;;;;17.77;43.56;101431.31;20744188;28;20081;-83
2023/03/28 22:56:05;;;;;;;1.30;0.73;;;;;;;17.79;43.71;101426.66;20742782;28;20080;-83
2023/03/28 23:06:07;;;;;;;1.63;0.80;;;;;;;17.65;43.54;101408.03;20740752;28;20046;-83
2023/03/28 23:16:09;;;;;;;1.05;0.65;;;;;;;17.76;43.71;101402.66;20742044;28;20057;-83
2023/03/28 23:26:11;;;;;;;1.48;1.02;;;;;;;17.75;43.61;101387.50;20725853;28;20100;-83
2023/03/28 23:36:14;;;;;;;1.42;0.70;;;;;;;17.60;43.74;101340.25;20740810;28;20411;-83
2023/03/28 23:46:15;;;;;;;1.02;0.73;;;;;;;17.75;43.49;101349.78;20739378;28;20121;-83
2023/03/28 23:56:17;;;;;;;1.02;0.60;;;;;;;17.66;43.81;101328.97;20738968;28;20054;-83
